RJSO(METAR)
06/25 08:00
METAR RJSO 242300Z 18005KT 130V230 9999 FEW020 BKN230 17/13 Q1017
RMK 1CU020 A3004=
戻る
トップページへ戻る
IMOC Co,.Ltd.